Time;durP1;ratioP1;P1;durP2;ratioP2;P2;SDS_P1;SDS_P2;PMS_P1;PMS_P2;Temp;Humidity;BMP_temperature;BMP_pressure;BME280_temperature;BME280_humidity;BME280_pressure;Samples;Min_cycle;Max_cycle;Signal;HPM_P1;HPM_P2
2021/01/31 00:00:38;;;;;;;18.27;12.63;;;;;;;1.86;100.00;98709.45;642400;223;24820;-73
2021/01/31 00:03:06;;;;;;;20.05;14.47;;;;;;;1.85;100.00;98706.55;621334;229;32772;-72
2021/01/31 00:05:34;;;;;;;21.20;11.90;;;;;;;1.85;100.00;98704.46;628260;228;23696;-72
2021/01/31 00:08:02;;;;;;;24.23;16.52;;;;;;;1.95;100.00;98701.45;619301;225;33041;-73
2021/01/31 00:10:30;;;;;;;20.97;13.97;;;;;;;1.82;100.00;98699.56;640644;224;23713;-73
2021/01/31 00:12:58;;;;;;;19.80;13.73;;;;;;;1.71;100.00;98703.84;637081;223;25010;-73
2021/01/31 00:15:26;;;;;;;20.67;12.03;;;;;;;1.73;100.00;98701.97;630681;225;24847;-73
2021/01/31 00:17:54;;;;;;;25.55;17.60;;;;;;;1.84;100.00;98692.12;626043;225;32931;-72
2021/01/31 00:20:22;;;;;;;30.20;16.27;;;;;;;1.79;100.00;98690.39;621019;229;23732;-72
2021/01/31 00:22:50;;;;;;;22.60;14.00;;;;;;;1.77;100.00;98696.92;636834;224;25153;-72
2021/01/31 00:25:18;;;;;;;21.30;14.27;;;;;;;1.83;100.00;98699.47;640708;222;24809;-73
2021/01/31 00:27:46;;;;;;;23.03;14.00;;;;;;;1.82;100.00;98705.97;641301;220;25188;-72
2021/01/31 00:30:17;;;;;;;29.67;19.23;;;;;;;1.87;100.00;98703.86;636145;223;32790;-72
2021/01/31 00:32:45;;;;;;;23.27;14.90;;;;;;;1.79;100.00;98695.05;638053;224;23679;-73
2021/01/31 00:35:13;;;;;;;25.90;16.30;;;;;;;1.83;100.00;98698.19;640023;223;24822;-72
2021/01/31 00:37:41;;;;;;;26.87;18.50;;;;;;;1.89;100.00;98704.55;635162;221;32673;-72
2021/01/31 00:40:10;;;;;;;26.03;16.40;;;;;;;1.80;100.00;98708.66;638998;224;23681;-72
2021/01/31 00:42:37;;;;;;;30.02;19.98;;;;;;;1.91;100.00;98707.78;633893;224;32657;-72
2021/01/31 00:45:07;;;;;;;25.87;16.43;;;;;;;1.85;100.00;98707.84;638667;224;25847;-72
2021/01/31 00:47:35;;;;;;;27.23;16.10;;;;;;;1.99;100.00;98725.91;639706;221;24781;-72
2021/01/31 00:50:03;;;;;;;25.70;15.57;;;;;;;1.96;100.00;98724.86;640755;223;24822;-73
2021/01/31 00:52:31;;;;;;;30.80;19.02;;;;;;;2.05;100.00;98726.67;622019;229;32972;-73
2021/01/31 00:54:59;;;;;;;22.33;13.90;;;;;;;1.96;100.00;98732.08;626252;228;23674;-72
2021/01/31 00:57:27;;;;;;;26.60;17.70;;;;;;;2.03;100.00;98729.84;620779;225;32757;-72
2021/01/31 00:59:55;;;;;;;23.23;15.07;;;;;;;1.97;100.00;98728.61;637296;224;23679;-73
2021/01/31 01:02:23;;;;;;;26.68;18.50;;;;;;;2.02;100.00;98730.78;632912;223;32770;-72
2021/01/31 01:04:51;;;;;;;24.97;15.60;;;;;;;2.00;100.00;98733.95;640027;224;23700;-72
2021/01/31 01:07:19;;;;;;;28.35;20.02;;;;;;;2.11;100.00;98729.19;614884;225;32684;-72
2021/01/31 01:09:47;;;;;;;21.93;15.20;;;;;;;2.04;100.00;98735.31;627703;228;23723;-72
2021/01/31 01:12:15;;;;;;;24.30;15.57;;;;;;;1.98;100.00;98739.67;640646;224;29082;-74
2021/01/31 01:14:43;;;;;;;28.83;19.23;;;;;;;2.05;100.00;98745.43;633846;224;33090;-74
2021/01/31 01:17:11;;;;;;;25.97;17.07;;;;;;;2.05;100.00;98745.91;624572;224;23708;-72
2021/01/31 01:19:39;;;;;;;23.37;15.13;;;;;;;2.05;100.00;98756.16;640146;223;24788;-73
2021/01/31 01:22:07;;;;;;;24.05;17.40;;;;;;;2.23;100.00;98761.03;633177;224;32744;-72
2021/01/31 01:24:35;;;;;;;24.60;15.87;;;;;;;2.09;100.00;98765.21;625763;229;25866;-72
2021/01/31 01:27:03;;;;;;;23.37;15.67;;;;;;;2.16;100.00;98758.65;635347;225;28025;-72
2021/01/31 01:29:31;;;;;;;23.23;14.50;;;;;;;2.14;100.00;98753.31;631279;221;27028;-72
2021/01/31 01:31:59;;;;;;;23.30;14.00;;;;;;;2.16;100.00;98759.93;633049;225;25118;-72
2021/01/31 01:34:27;;;;;;;20.70;16.07;;;;;;;2.22;100.00;98763.25;626745;225;33280;-72
2021/01/31 01:36:55;;;;;;;21.30;14.47;;;;;;;2.23;100.00;98771.28;636378;224;23781;-72
2021/01/31 01:39:23;;;;;;;20.87;13.77;;;;;;;2.22;100.00;98776.08;630461;224;24868;-72
2021/01/31 01:41:51;;;;;;;20.33;13.80;;;;;;;2.27;100.00;98774.43;637513;225;24833;-72
2021/01/31 01:44:18;;;;;;;18.37;12.40;;;;;;;2.21;100.00;98774.92;637269;224;24859;-73
2021/01/31 01:46:46;;;;;;;20.57;13.90;;;;;;;2.22;100.00;98773.98;636064;225;24862;-73
2021/01/31 01:49:17;;;;;;;21.43;13.70;;;;;;;2.17;100.00;98779.50;639117;221;24786;-71
2021/01/31 01:51:45;;;;;;;14.60;11.17;;;;;;;2.07;100.00;98773.03;637387;224;24846;-72
2021/01/31 01:54:14;;;;;;;15.33;11.03;;;;;;;2.06;100.00;98780.38;632285;225;28040;-72
2021/01/31 01:56:42;;;;;;;20.60;12.87;;;;;;;2.06;100.00;98783.42;632634;225;24916;-73
2021/01/31 01:59:10;;;;;;;23.77;17.20;;;;;;;2.14;100.00;98781.05;620548;224;32730;-73
2021/01/31 02:01:39;;;;;;;24.17;16.17;;;;;;;1.95;100.00;98771.48;627945;228;23698;-73
2021/01/31 02:04:06;;;;;;;21.23;16.10;;;;;;;2.07;100.00;98774.31;619132;229;32772;-73
2021/01/31 02:06:34;;;;;;;23.98;16.57;;;;;;;2.22;100.00;98771.42;633830;224;32993;-73
2021/01/31 02:09:03;;;;;;;26.55;18.95;;;;;;;2.12;100.00;98764.98;622466;225;32893;-73
2021/01/31 02:11:31;;;;;;;24.77;16.40;;;;;;;1.96;100.00;98759.47;640491;223;23676;-73
2021/01/31 02:13:59;;;;;;;28.60;16.10;;;;;;;1.87;100.00;98756.41;632248;225;24853;-73
2021/01/31 02:16:29;;;;;;;26.48;18.87;;;;;;;1.91;100.00;98752.17;630680;225;33323;-73
2021/01/31 02:19:01;;;;;;;25.03;16.87;;;;;;;1.81;100.00;98746.64;624742;225;23685;-72
2021/01/31 02:21:36;;;;;;;25.03;15.80;;;;;;;1.89;100.00;98748.92;626837;229;24807;-73
2021/01/31 02:24:41;;;;;;;26.57;16.40;;;;;;;1.78;100.00;98744.67;638546;223;24795;-73
2021/01/31 02:27:18;;;;;;;22.57;14.77;;;;;;;1.73;100.00;98742.97;640018;221;24796;-74
2021/01/31 02:29:59;;;;;;;24.60;15.80;;;;;;;1.74;100.00;98747.16;629374;225;24834;-74
2021/01/31 02:32:36;;;;;;;20.77;13.50;;;;;;;1.71;100.00;98742.28;628271;225;24845;-72
2021/01/31 02:35:04;;;;;;;24.27;14.80;;;;;;;1.79;100.00;98742.45;627573;225;24855;-73
2021/01/31 02:37:33;;;;;;;22.73;14.67;;;;;;;1.71;100.00;98746.13;624756;225;28062;-72
2021/01/31 02:40:02;;;;;;;18.33;12.00;;;;;;;1.69;100.00;98748.45;626057;229;27989;-72
2021/01/31 02:42:33;;;;;;;15.53;10.73;;;;;;;1.75;100.00;98753.91;627456;226;24840;-72
2021/01/31 02:45:06;;;;;;;16.60;11.43;;;;;;;1.89;100.00;98750.68;626472;229;24838;-72
2021/01/31 02:47:34;;;;;;;15.53;11.17;;;;;;;1.89;100.00;98752.77;625698;226;24796;-72
2021/01/31 02:50:03;;;;;;;15.97;10.33;;;;;;;1.94;100.00;98749.81;627387;228;24823;-72
2021/01/31 02:52:30;;;;;;;19.30;12.60;;;;;;;1.85;100.00;98757.00;637606;224;24875;-72
2021/01/31 02:54:59;;;;;;;19.50;11.70;;;;;;;1.96;100.00;98759.00;623468;229;24896;-72
2021/01/31 02:57:29;;;;;;;19.53;12.60;;;;;;;2.02;100.00;98760.27;625722;226;24805;-73
2021/01/31 02:59:57;;;;;;;22.10;14.27;;;;;;;2.05;100.00;98760.00;627369;226;24854;-73
2021/01/31 03:02:25;;;;;;;21.07;14.00;;;;;;;1.98;100.00;98771.25;627354;229;24795;-72
2021/01/31 03:04:54;;;;;;;26.80;18.98;;;;;;;2.05;100.00;98775.39;619893;229;32767;-73
2021/01/31 03:07:22;;;;;;;23.93;16.10;;;;;;;2.02;100.00;98773.08;639941;221;26920;-73
2021/01/31 03:09:50;;;;;;;24.13;16.07;;;;;;;2.02;100.00;98779.49;639434;224;24784;-72
2021/01/31 03:12:18;;;;;;;24.57;14.93;;;;;;;1.97;100.00;98772.19;633798;224;25088;-74
2021/01/31 03:14:46;;;;;;;25.75;18.27;;;;;;;1.94;100.00;98776.73;634139;224;32717;-73
2021/01/31 03:17:14;;;;;;;27.50;16.70;;;;;;;1.90;100.00;98778.74;639688;221;23653;-72
2021/01/31 03:19:43;;;;;;;26.20;15.80;;;;;;;1.89;100.00;98781.44;639223;224;24832;-72
2021/01/31 03:22:12;;;;;;;23.53;14.97;;;;;;;1.83;100.00;98784.48;639602;224;25125;-73
2021/01/31 03:24:40;;;;;;;27.57;17.93;;;;;;;1.90;100.00;98786.44;635231;224;43447;-72
2021/01/31 03:27:08;;;;;;;25.93;15.90;;;;;;;1.85;100.00;98785.20;638431;224;24808;-72
2021/01/31 03:29:36;;;;;;;25.12;18.10;;;;;;;2.02;100.00;98785.90;632432;224;32669;-72
2021/01/31 03:32:04;;;;;;;24.87;15.90;;;;;;;1.85;100.00;98794.17;639419;224;23685;-73
2021/01/31 03:34:33;;;;;;;25.70;18.10;;;;;;;2.00;100.00;98800.60;634057;224;32721;-73
2021/01/31 03:37:01;;;;;;;21.80;14.53;;;;;;;2.00;100.00;98792.91;639737;224;23701;-72
2021/01/31 03:39:30;;;;;;;21.17;15.53;;;;;;;2.05;100.00;98790.30;626851;225;33630;-72
2021/01/31 03:41:58;;;;;;;22.70;15.13;;;;;;;2.02;100.00;98801.28;627509;225;23730;-72
2021/01/31 03:44:25;;;;;;;19.10;12.30;;;;;;;1.96;100.00;98797.92;624516;229;24798;-72
2021/01/31 03:46:54;;;;;;;22.75;15.80;;;;;;;2.01;100.00;98790.69;631721;224;32641;-73
2021/01/31 03:49:22;;;;;;;19.83;13.20;;;;;;;1.98;100.00;98796.89;626489;225;23711;-73
2021/01/31 03:51:50;;;;;;;20.68;15.10;;;;;;;1.95;100.00;98799.67;634506;224;32779;-72
2021/01/31 03:54:18;;;;;;;21.50;14.00;;;;;;;1.85;100.00;98800.11;619601;230;23698;-73
2021/01/31 03:56:47;;;;;;;17.40;11.60;;;;;;;1.83;100.00;98817.36;627382;228;24837;-73
2021/01/31 03:59:15;;;;;;;17.40;13.30;;;;;;;1.95;100.00;98815.53;634279;220;32833;-72
2021/01/31 04:01:43;;;;;;;11.90;9.17;;;;;;;1.76;100.00;98811.91;630863;222;23721;-72
2021/01/31 04:04:12;;;;;;;12.43;8.43;;;;;;;1.79;100.00;98810.84;633829;225;24892;-72
2021/01/31 04:06:39;;;;;;;10.65;9.00;;;;;;;1.76;100.00;98791.41;623775;225;32949;-72
2021/01/31 04:09:07;;;;;;;11.23;9.00;;;;;;;1.79;100.00;98800.11;625656;227;25052;-72
2021/01/31 04:11:35;;;;;;;9.13;7.50;;;;;;;1.79;100.00;98795.46;629886;225;24857;-73
2021/01/31 04:14:05;;;;;;;9.87;7.93;;;;;;;1.73;100.00;98794.69;628649;225;24865;-72
2021/01/31 04:16:36;;;;;;;10.20;8.20;;;;;;;1.85;100.00;98789.04;620078;229;32770;-73
2021/01/31 04:19:04;;;;;;;10.60;8.17;;;;;;;1.77;100.00;98789.18;639408;221;23658;-72
2021/01/31 04:21:32;;;;;;;9.55;8.55;;;;;;;1.85;100.00;98780.88;621227;229;33023;-72
2021/01/31 04:24:00;;;;;;;10.20;8.67;;;;;;;1.79;100.00;98781.36;627292;228;23703;-74
2021/01/31 04:26:28;;;;;;;20.05;14.30;;;;;;;1.97;100.00;98786.29;635361;223;32715;-74
2021/01/31 04:28:56;;;;;;;17.27;12.50;;;;;;;1.95;100.00;98784.30;642009;220;23771;-72
2021/01/31 04:31:23;;;;;;;13.08;10.88;;;;;;;1.83;100.00;98772.95;631288;224;32942;-72
2021/01/31 04:33:51;;;;;;;13.63;9.23;;;;;;;1.75;100.00;98771.84;618740;229;25756;-73
2021/01/31 04:36:19;;;;;;;11.47;8.13;;;;;;;1.74;100.00;98779.19;627695;228;27009;-73
2021/01/31 04:38:47;;;;;;;10.07;7.20;;;;;;;1.79;100.00;98779.61;637708;221;24762;-72
2021/01/31 04:41:15;;;;;;;10.95;9.45;;;;;;;1.86;100.00;98779.13;632120;224;32630;-72
2021/01/31 04:43:43;;;;;;;12.30;8.93;;;;;;;1.76;100.00;98769.62;637595;225;23647;-72
2021/01/31 04:46:11;;;;;;;12.10;9.15;;;;;;;1.83;100.00;98779.36;631604;224;32877;-74
2021/01/31 04:48:39;;;;;;;10.48;9.33;;;;;;;1.83;100.00;98791.73;631701;220;32589;-74
2021/01/31 04:51:11;;;;;;;11.30;9.03;;;;;;;1.84;100.00;98797.67;636639;225;23640;-74
2021/01/31 04:53:48;;;;;;;14.20;8.83;;;;;;;1.77;100.00;98795.59;636800;225;24763;-74
2021/01/31 04:56:20;;;;;;;11.90;8.70;;;;;;;1.81;100.00;98791.48;638397;225;24799;-74
2021/01/31 04:58:48;;;;;;;12.73;8.57;;;;;;;1.83;100.00;98804.55;637261;220;24755;-75
2021/01/31 05:01:17;;;;;;;12.70;10.43;;;;;;;1.97;100.00;98814.92;630068;225;32594;-74
2021/01/31 05:03:46;;;;;;;14.37;10.70;;;;;;;1.94;100.00;98810.88;637568;225;23654;-72
2021/01/31 05:06:14;;;;;;;12.88;10.60;;;;;;;1.96;100.00;98813.30;631844;223;32946;-72
2021/01/31 05:08:42;;;;;;;13.00;10.35;;;;;;;1.97;100.00;98817.05;632027;220;32617;-72
2021/01/31 05:11:10;;;;;;;11.43;9.63;;;;;;;1.99;100.00;98812.61;636379;223;24814;-72
2021/01/31 05:13:38;;;;;;;14.78;10.20;;;;;;;2.02;100.00;98810.26;632211;224;32579;-72
2021/01/31 05:16:07;;;;;;;10.67;8.90;;;;;;;1.97;100.00;98805.95;625112;229;23673;-73
2021/01/31 05:18:34;;;;;;;12.10;8.67;;;;;;;1.90;100.00;98814.63;639579;221;25910;-73
2021/01/31 05:21:03;;;;;;;12.23;10.28;;;;;;;1.96;100.00;98811.55;620623;229;32856;-73
2021/01/31 05:23:31;;;;;;;11.43;10.23;;;;;;;1.98;100.00;98819.15;622902;228;43900;-72
2021/01/31 05:25:59;;;;;;;13.20;10.60;;;;;;;1.89;100.00;98814.29;634072;224;33037;-72
2021/01/31 05:28:27;;;;;;;11.80;10.43;;;;;;;2.09;100.00;98817.77;634074;221;32789;-72
2021/01/31 05:30:55;;;;;;;11.87;9.57;;;;;;;1.97;100.00;98807.23;641873;224;23678;-72
2021/01/31 05:33:23;;;;;;;11.77;9.07;;;;;;;1.90;100.00;98809.97;640989;224;24784;-73
2021/01/31 05:35:51;;;;;;;11.10;7.70;;;;;;;1.71;100.00;98811.47;626112;229;24813;-72
2021/01/31 05:38:34;;;;;;;11.23;8.87;;;;;;;1.64;100.00;98811.61;620963;225;24800;-72
2021/01/31 05:41:03;;;;;;;12.10;10.05;;;;;;;1.81;100.00;98827.37;624001;227;32884;-72
2021/01/31 05:43:30;;;;;;;12.43;9.17;;;;;;;1.63;100.00;98816.39;624906;229;23743;-72
2021/01/31 05:45:58;;;;;;;13.03;10.98;;;;;;;1.83;100.00;98818.64;618933;228;32985;-72
2021/01/31 05:48:26;;;;;;;11.27;8.73;;;;;;;1.79;100.00;98814.68;637717;221;23672;-72
2021/01/31 05:50:54;;;;;;;11.93;10.08;;;;;;;1.86;100.00;98831.67;619283;229;43481;-72
2021/01/31 05:53:25;;;;;;;11.67;9.00;;;;;;;1.82;100.00;98821.30;625196;228;23669;-72
2021/01/31 05:55:53;;;;;;;12.25;10.30;;;;;;;1.91;100.00;98829.54;619434;229;32981;-74
2021/01/31 05:58:21;;;;;;;10.40;8.70;;;;;;;1.70;100.00;98825.22;625183;226;23716;-74
2021/01/31 06:00:49;;;;;;;11.80;10.32;;;;;;;1.62;100.00;98828.86;634943;223;32738;-72
2021/01/31 06:03:20;;;;;;;12.07;9.70;;;;;;;1.69;100.00;98838.98;636787;224;23676;-74
2021/01/31 06:05:48;;;;;;;12.58;10.38;;;;;;;1.71;100.00;98829.41;635200;224;32827;-72
2021/01/31 06:08:26;;;;;;;10.80;8.80;;;;;;;1.63;100.00;98830.48;639269;221;23707;-72
2021/01/31 06:10:59;;;;;;;12.75;10.55;;;;;;;1.76;100.00;98834.16;634115;224;32698;-71
2021/01/31 06:13:27;;;;;;;13.47;10.87;;;;;;;1.79;100.00;98833.44;637673;225;23719;-71
2021/01/31 06:15:55;;;;;;;13.10;10.65;;;;;;;1.78;100.00;98831.00;620547;229;32802;-71
2021/01/31 06:18:23;;;;;;;13.67;10.03;;;;;;;1.72;100.00;98840.48;633542;220;23800;-73
2021/01/31 06:20:51;;;;;;;13.30;10.10;;;;;;;1.67;100.00;98847.70;634042;225;24845;-71
2021/01/31 06:23:20;;;;;;;13.32;10.63;;;;;;;1.79;100.00;98851.84;629389;223;32966;-74
2021/01/31 06:25:48;;;;;;;12.70;9.43;;;;;;;1.73;100.00;98851.06;639018;224;30055;-71
2021/01/31 06:28:17;;;;;;;12.93;10.55;;;;;;;1.79;100.00;98851.38;630993;220;32898;-71
2021/01/31 06:30:45;;;;;;;11.83;9.10;;;;;;;1.71;100.00;98853.75;637736;224;23648;-71
2021/01/31 06:33:14;;;;;;;13.65;11.48;;;;;;;1.94;100.00;98869.02;619959;229;32762;-71
2021/01/31 06:35:42;;;;;;;13.60;9.77;;;;;;;1.82;100.00;98864.87;627523;227;23698;-72
2021/01/31 06:38:14;;;;;;;13.28;11.12;;;;;;;1.98;100.00;98875.55;635801;220;32791;-72
2021/01/31 06:40:45;;;;;;;12.40;9.77;;;;;;;1.87;100.00;98872.56;633663;225;23815;-72
2021/01/31 06:43:18;;;;;;;13.38;11.15;;;;;;;1.94;100.00;98872.86;620645;226;32933;-71
2021/01/31 06:45:46;;;;;;;12.03;9.40;;;;;;;1.75;100.00;98871.78;634743;225;23766;-74
2021/01/31 06:48:24;;;;;;;10.53;8.47;;;;;;;1.78;100.00;98876.66;637095;225;24822;-71
2021/01/31 06:51:14;;;;;;;13.58;11.18;;;;;;;1.88;100.00;98879.31;633645;224;32706;-74
2021/01/31 06:53:50;;;;;;;13.73;10.10;;;;;;;1.72;100.00;98881.00;640239;224;23677;-74
2021/01/31 06:56:25;;;;;;;11.60;8.97;;;;;;;1.75;100.00;98891.01;625521;229;24805;-74
2021/01/31 06:59:04;;;;;;;13.58;10.72;;;;;;;1.85;100.00;98887.72;632798;221;32703;-76
2021/01/31 07:01:39;;;;;;;13.00;10.33;;;;;;;1.76;100.00;98895.19;633893;226;23698;-74
2021/01/31 07:04:32;;;;;;;12.27;9.53;;;;;;;1.68;100.00;98892.88;622854;229;24924;-76
2021/01/31 07:07:10;;;;;;;13.93;11.05;;;;;;;1.75;100.00;98888.44;618870;228;32880;-72
2021/01/31 07:09:43;;;;;;;11.67;9.40;;;;;;;1.76;100.00;98899.04;640832;221;26858;-74
2021/01/31 07:12:11;;;;;;;12.97;9.43;;;;;;;1.70;100.00;98897.44;640921;224;24899;-74
2021/01/31 07:14:42;;;;;;;13.83;11.10;;;;;;;1.78;100.00;98909.98;616797;229;32783;-73
2021/01/31 07:17:17;;;;;;;13.97;10.50;;;;;;;1.76;100.00;98906.73;625877;229;24847;-74
2021/01/31 07:19:49;;;;;;;12.68;10.60;;;;;;;1.81;100.00;98913.23;621043;229;32797;-72
2021/01/31 07:22:17;;;;;;;13.33;9.70;;;;;;;1.82;100.00;98912.29;627363;227;24030;-75
2021/01/31 07:24:46;;;;;;;14.70;11.20;;;;;;;1.82;100.00;98899.00;618922;229;33169;-74
2021/01/31 07:27:28;;;;;;;14.73;10.07;;;;;;;1.84;100.00;98896.34;638047;223;23667;-74
2021/01/31 07:30:00;;;;;;;13.70;10.80;;;;;;;1.91;100.00;98902.59;621323;228;33144;-74
2021/01/31 07:32:28;;;;;;;13.43;10.03;;;;;;;1.72;100.00;98909.19;639903;224;23690;-71
2021/01/31 07:34:57;;;;;;;13.80;11.33;;;;;;;1.94;100.00;98915.16;635984;222;43463;-72
2021/01/31 07:37:25;;;;;;;12.27;9.10;;;;;;;1.81;100.00;98908.10;641813;220;23681;-74
2021/01/31 07:39:56;;;;;;;13.38;11.08;;;;;;;1.94;99.98;98911.31;636239;220;32711;-72
2021/01/31 07:42:24;;;;;;;12.13;9.73;;;;;;;1.89;99.72;98909.13;642136;222;23636;-72
2021/01/31 07:44:56;;;;;;;14.38;11.80;;;;;;;1.97;100.00;98914.47;634970;222;32760;-71
2021/01/31 07:47:24;;;;;;;10.67;8.90;;;;;;;1.89;99.15;98912.98;641090;221;23685;-71
2021/01/31 07:50:18;;;;;;;13.30;9.80;;;;;;;1.88;100.00;98916.95;639020;224;24768;-71
2021/01/31 07:52:52;;;;;;;13.37;10.67;;;;;;;1.98;99.50;98916.09;618219;224;32903;-72
2021/01/31 07:55:24;;;;;;;13.63;10.40;;;;;;;1.84;99.42;98903.56;633283;225;26107;-73
2021/01/31 07:58:02;;;;;;;14.05;11.08;;;;;;;2.07;99.26;98910.67;620661;226;32951;-75
2021/01/31 08:00:35;;;;;;;11.87;9.17;;;;;;;1.92;99.05;98911.91;636971;225;23699;-71
2021/01/31 08:03:04;;;;;;;12.07;10.55;;;;;;;2.00;100.00;98922.38;629924;225;32881;-71
2021/01/31 08:05:45;;;;;;;14.80;11.33;;;;;;;1.99;99.96;98920.75;638766;221;23678;-71
2021/01/31 08:08:40;;;;;;;9.37;8.27;;;;;;;1.89;99.23;98921.13;625731;226;24842;-71
2021/01/31 08:11:30;;;;;;;11.80;9.50;;;;;;;1.91;99.37;98930.33;640424;222;24809;-71
2021/01/31 08:13:58;;;;;;;14.20;9.97;;;;;;;1.89;100.00;98934.77;639648;224;24806;-74
2021/01/31 08:19:25;;;;;;;14.03;10.40;;;;;;;1.96;99.63;98932.04;632657;225;23747;-74
2021/01/31 08:22:01;;;;;;;13.90;11.20;;;;;;;2.04;99.44;98938.66;625839;225;33010;-74
2021/01/31 08:24:40;;;;;;;15.10;11.90;;;;;;;2.22;99.77;98935.09;620473;224;32912;-74
2021/01/31 08:27:12;;;;;;;13.33;10.43;;;;;;;2.13;99.56;98937.59;625603;225;23703;-74
2021/01/31 08:29:41;;;;;;;13.93;10.93;;;;;;;2.10;98.36;98950.17;624369;225;32929;-74
2021/01/31 08:32:10;;;;;;;13.93;9.77;;;;;;;2.05;99.22;98954.86;626334;222;23715;-73
2021/01/31 08:34:52;;;;;;;13.80;11.23;;;;;;;2.06;98.76;98951.36;619939;227;32931;-74
2021/01/31 08:37:22;;;;;;;14.30;11.20;;;;;;;2.15;98.96;98948.07;619914;225;32782;-73
2021/01/31 08:39:50;;;;;;;13.90;9.80;;;;;;;2.25;99.60;98952.81;626378;228;23690;-73
2021/01/31 08:42:18;;;;;;;15.70;10.57;;;;;;;2.16;99.29;98957.39;637147;224;24789;-75
2021/01/31 08:44:57;;;;;;;13.73;9.30;;;;;;;2.05;98.40;98951.02;640008;224;24799;-73
2021/01/31 08:47:25;;;;;;;12.93;9.20;;;;;;;2.06;99.73;98961.62;635370;221;24851;-73
2021/01/31 08:49:58;;;;;;;14.23;10.90;;;;;;;2.00;98.29;98950.58;635645;223;32814;-75
2021/01/31 08:52:27;;;;;;;13.23;10.27;;;;;;;2.14;98.68;98963.58;623779;229;23660;-73
2021/01/31 08:55:01;;;;;;;13.95;11.53;;;;;;;2.31;99.10;98957.44;631020;224;33040;-73
2021/01/31 08:57:29;;;;;;;13.50;11.30;;;;;;;2.29;98.42;98955.47;629532;225;32916;-73
2021/01/31 08:59:57;;;;;;;13.32;10.85;;;;;;;2.30;98.71;98957.09;627722;225;32930;-72
2021/01/31 09:02:25;;;;;;;14.27;11.07;;;;;;;2.24;98.44;98962.70;634401;225;23728;-72
2021/01/31 09:04:53;;;;;;;13.80;11.20;;;;;;;2.45;98.30;98950.38;622960;225;32957;-73
2021/01/31 09:07:23;;;;;;;14.47;9.50;;;;;;;2.30;98.70;98944.73;639939;220;23683;-73
2021/01/31 09:09:53;;;;;;;14.37;9.53;;;;;;;2.33;98.96;98940.16;623304;229;26028;-73
2021/01/31 09:12:21;;;;;;;14.45;11.40;;;;;;;2.43;98.36;98950.50;624339;226;32909;-73
2021/01/31 09:14:50;;;;;;;13.47;10.60;;;;;;;2.34;98.03;98946.11;635429;225;24727;-73
2021/01/31 09:17:21;;;;;;;15.90;10.00;;;;;;;2.44;97.76;98950.03;626366;229;24818;-74
2021/01/31 09:19:50;;;;;;;12.87;10.47;;;;;;;2.34;97.74;98948.20;638055;224;24813;-73
2021/01/31 09:22:18;;;;;;;13.73;9.20;;;;;;;2.48;97.42;98944.98;640322;223;29063;-73
2021/01/31 09:24:46;;;;;;;15.53;9.60;;;;;;;2.44;97.64;98937.20;639591;224;24817;-73
2021/01/31 09:27:16;;;;;;;13.60;9.23;;;;;;;2.58;97.23;98927.91;641218;224;26963;-74
2021/01/31 09:29:44;;;;;;;11.70;9.00;;;;;;;2.68;97.35;98933.91;626332;225;25294;-74
2021/01/31 09:32:12;;;;;;;13.37;10.07;;;;;;;2.62;97.04;98930.09;637149;224;24838;-73
2021/01/31 09:34:41;;;;;;;16.13;9.10;;;;;;;2.48;97.24;98932.16;639897;224;24818;-74
2021/01/31 09:37:08;;;;;;;13.60;10.33;;;;;;;2.59;97.31;98934.66;633310;225;24888;-75
2021/01/31 09:39:36;;;;;;;15.03;11.13;;;;;;;2.59;97.90;98937.23;631260;225;24860;-73
2021/01/31 09:42:05;;;;;;;12.20;8.93;;;;;;;2.80;97.14;98934.63;631403;225;24873;-74
2021/01/31 09:44:33;;;;;;;12.93;9.77;;;;;;;2.90;97.63;98932.92;627233;225;27053;-74
2021/01/31 09:47:02;;;;;;;13.93;9.83;;;;;;;2.83;96.54;98927.51;630056;225;24877;-74
2021/01/31 09:49:30;;;;;;;13.87;10.20;;;;;;;2.98;97.02;98937.78;625482;225;24842;-74
2021/01/31 09:52:05;;;;;;;15.73;10.27;;;;;;;2.92;96.21;98929.76;627114;227;24860;-74
2021/01/31 09:54:33;;;;;;;12.60;9.87;;;;;;;2.83;96.49;98947.23;624377;229;24818;-74
2021/01/31 09:57:02;;;;;;;14.30;10.40;;;;;;;2.77;96.55;98949.82;636961;224;24810;-73
2021/01/31 09:59:30;;;;;;;12.30;9.17;;;;;;;2.73;96.38;98952.30;639290;219;24845;-73
2021/01/31 10:02:03;;;;;;;16.60;10.50;;;;;;;2.83;95.98;98947.23;632028;225;24861;-73
2021/01/31 10:04:31;;;;;;;16.20;10.23;;;;;;;2.88;96.65;98947.19;637229;223;24837;-73
2021/01/31 10:07:00;;;;;;;11.67;9.30;;;;;;;2.85;96.96;98951.30;640367;223;24803;-73
2021/01/31 10:09:31;;;;;;;14.40;10.10;;;;;;;2.80;96.85;98940.58;630127;225;24819;-73
2021/01/31 10:12:24;;;;;;;14.37;10.17;;;;;;;2.90;97.34;98941.44;626631;225;25036;-73
2021/01/31 10:14:52;;;;;;;16.30;11.30;;;;;;;3.08;96.82;98935.70;633383;224;24832;-73
2021/01/31 10:17:20;;;;;;;14.80;10.10;;;;;;;3.02;95.97;98936.23;637887;224;30182;-73
2021/01/31 10:19:48;;;;;;;13.70;9.27;;;;;;;3.01;95.42;98938.45;634065;225;24843;-74
2021/01/31 10:22:20;;;;;;;14.97;11.17;;;;;;;2.99;95.30;98929.60;630624;225;24908;-73
2021/01/31 10:27:28;;;;;;;16.37;11.20;;;;;;;3.10;96.73;98928.70;651995;216;25691;-74
2021/01/31 10:29:58;;;;;;;15.35;12.00;;;;;;;3.24;96.37;98926.59;619694;227;32943;-72
2021/01/31 10:32:28;;;;;;;15.80;10.77;;;;;;;3.27;96.75;98920.38;634753;225;26895;-72
2021/01/31 10:34:56;;;;;;;15.00;11.37;;;;;;;3.38;95.70;98925.86;634428;225;25854;-72
2021/01/31 10:37:31;;;;;;;14.77;10.90;;;;;;;3.32;94.95;98926.39;639375;224;24806;-72
2021/01/31 10:39:59;;;;;;;13.17;9.97;;;;;;;3.26;96.17;98929.84;640920;223;24824;-73
2021/01/31 10:42:27;;;;;;;15.15;12.20;;;;;;;3.39;95.90;98935.22;626760;225;32878;-72
2021/01/31 10:45:01;;;;;;;14.77;11.40;;;;;;;3.33;95.28;98930.59;633806;225;23742;-72
2021/01/31 10:47:30;;;;;;;13.68;10.85;;;;;;;3.36;95.00;98927.75;619532;225;32903;-72
2021/01/31 10:49:58;;;;;;;14.67;11.20;;;;;;;3.42;94.87;98939.63;634856;225;23693;-73
2021/01/31 10:52:26;;;;;;;16.23;10.93;;;;;;;3.41;95.13;98944.89;636215;225;26096;-72
2021/01/31 10:54:54;;;;;;;15.57;11.33;;;;;;;3.13;95.20;98937.43;631948;225;24869;-72
2021/01/31 10:57:22;;;;;;;13.00;10.10;;;;;;;3.25;95.71;98937.20;633627;225;24871;-73
2021/01/31 10:59:51;;;;;;;13.60;10.23;;;;;;;3.20;95.97;98927.77;642464;221;24787;-71
2021/01/31 11:02:18;;;;;;;14.80;10.80;;;;;;;3.27;97.52;98920.38;643213;221;24890;-72
2021/01/31 11:04:46;;;;;;;14.17;10.30;;;;;;;3.18;97.09;98921.95;640353;221;25103;-72
2021/01/31 11:07:14;;;;;;;15.32;11.40;;;;;;;3.22;96.59;98915.61;626501;225;32883;-74
2021/01/31 11:09:42;;;;;;;14.07;10.63;;;;;;;3.19;95.91;98911.21;633267;226;23996;-72
2021/01/31 11:12:10;;;;;;;14.00;10.60;;;;;;;3.19;97.07;98906.08;639315;222;26161;-73
2021/01/31 11:14:38;;;;;;;14.73;11.60;;;;;;;3.41;96.14;98908.45;636031;221;32836;-73
2021/01/31 11:17:06;;;;;;;13.53;10.47;;;;;;;3.31;96.12;98905.03;639841;221;23653;-72
2021/01/31 11:19:34;;;;;;;14.23;10.17;;;;;;;3.31;96.15;98897.32;642554;221;24828;-73
2021/01/31 11:22:02;;;;;;;14.87;10.43;;;;;;;3.23;95.79;98894.58;644502;221;24771;-73
2021/01/31 11:24:30;;;;;;;16.47;10.87;;;;;;;3.37;96.52;98900.64;642790;221;24787;-72
2021/01/31 11:26:58;;;;;;;13.10;9.80;;;;;;;3.39;96.18;98891.06;638178;225;24887;-73
2021/01/31 11:29:26;;;;;;;13.97;10.00;;;;;;;3.34;95.74;98890.63;647110;221;24829;-73
2021/01/31 11:31:54;;;;;;;14.10;10.43;;;;;;;3.34;95.64;98886.77;629465;225;24819;-72
2021/01/31 11:34:22;;;;;;;16.80;8.80;;;;;;;3.25;95.56;98887.11;643735;221;27971;-72
2021/01/31 11:36:50;;;;;;;14.10;9.93;;;;;;;3.46;96.83;98896.47;640883;221;24815;-72
2021/01/31 11:39:18;;;;;;;15.32;12.23;;;;;;;3.53;95.45;98888.11;634284;220;32776;-72